Time;durP1;ratioP1;P1;durP2;ratioP2;P2;SDS_P1;SDS_P2;PMS_P1;PMS_P2;Temp;Humidity;BMP_temperature;BMP_pressure;BME280_temperature;BME280_humidity;BME280_pressure;Samples;Min_cycle;Max_cycle;Signal;HPM_P1;HPM_P2
2021/01/20 00:01:21;;;;;;;7.40;4.20;;;3.40;69.30;;;;;;4917493;29;20497;-79
2021/01/20 00:03:47;;;;;;;6.70;4.17;;;3.40;69.20;;;;;;4916613;29;20052;-79
2021/01/20 00:06:12;;;;;;;8.30;3.40;;;3.40;69.10;;;;;;4916074;29;20164;-79
2021/01/20 00:08:38;;;;;;;4.17;2.50;;;3.40;68.80;;;;;;4917477;29;20103;-80
2021/01/20 00:11:04;;;;;;;3.43;2.13;;;3.40;68.90;;;;;;4931735;29;20083;-80
2021/01/20 00:13:30;;;;;;;4.87;2.10;;;3.50;69.20;;;;;;4916436;29;20028;-80
2021/01/20 00:15:55;;;;;;;7.67;2.77;;;3.40;69.60;;;;;;4931564;29;20024;-80
2021/01/20 00:18:21;;;;;;;5.27;3.30;;;3.40;68.90;;;;;;4932069;29;20032;-80
2021/01/20 00:20:47;;;;;;;5.20;2.20;;;3.40;68.90;;;;;;4932256;29;20036;-80
2021/01/20 00:23:13;;;;;;;5.63;2.33;;;3.50;68.50;;;;;;4916906;29;20028;-80
2021/01/20 00:25:39;;;;;;;3.13;1.97;;;3.50;68.70;;;;;;4916172;29;20028;-79
2021/01/20 00:28:05;;;;;;;2.93;1.97;;;3.50;69.10;;;;;;4919464;29;20025;-80
2021/01/20 00:30:31;;;;;;;3.20;1.70;;;3.50;69.00;;;;;;4920258;29;20091;-80
2021/01/20 00:32:58;;;;;;;4.10;1.77;;;3.50;68.90;;;;;;4919443;29;20038;-79
2021/01/20 00:35:25;;;;;;;3.40;2.00;;;3.50;68.90;;;;;;4920906;29;20036;-80
2021/01/20 00:37:51;;;;;;;5.43;2.10;;;3.50;68.70;;;;;;4921008;29;20087;-80
2021/01/20 00:40:17;;;;;;;4.13;2.20;;;3.50;69.00;;;;;;4919330;29;20028;-80
2021/01/20 00:42:43;;;;;;;4.87;2.40;;;3.40;69.70;;;;;;4919938;29;20477;-80
2021/01/20 00:45:09;;;;;;;6.10;2.30;;;3.30;70.60;;;;;;4935168;29;20043;-80
2021/01/20 00:47:35;;;;;;;6.20;2.53;;;3.10;71.90;;;;;;4935946;29;20051;-80
2021/01/20 00:50:00;;;;;;;4.40;2.43;;;3.00;72.20;;;;;;4935374;29;20036;-79
2021/01/20 00:52:26;;;;;;;4.63;1.90;;;2.90;72.70;;;;;;4920956;29;20036;-80
2021/01/20 00:54:52;;;;;;;4.27;1.80;;;2.70;73.20;;;;;;4920819;29;20115;-80
2021/01/20 00:57:17;;;;;;;4.73;2.40;;;2.60;73.70;;;;;;4920198;29;20481;-80
2021/01/20 00:59:43;;;;;;;4.10;2.03;;;2.40;74.60;;;;;;4940032;29;20099;-80
2021/01/20 01:02:09;;;;;;;5.27;2.47;;;2.40;75.00;;;;;;4922046;29;20354;-80
2021/01/20 01:04:34;;;;;;;3.40;1.83;;;2.30;75.30;;;;;;4939829;29;20055;-80
2021/01/20 01:07:00;;;;;;;4.23;2.07;;;2.20;75.50;;;;;;4922136;29;20112;-80
2021/01/20 01:09:26;;;;;;;4.80;2.20;;;2.20;76.00;;;;;;4922708;29;20469;-80
2021/01/20 01:11:51;;;;;;;4.03;2.23;;;2.10;76.00;;;;;;4922745;29;20437;-81
2021/01/20 01:14:17;;;;;;;3.13;1.83;;;2.10;76.00;;;;;;4939030;29;20035;-80
2021/01/20 01:16:43;;;;;;;2.53;1.43;;;2.00;76.10;;;;;;4922542;29;20028;-80
2021/01/20 01:19:08;;;;;;;3.07;1.83;;;2.00;76.40;;;;;;4938722;29;20032;-80
2021/01/20 01:21:34;;;;;;;4.17;2.00;;;1.90;76.80;;;;;;4922693;29;20166;-81
2021/01/20 01:24:00;;;;;;;2.13;1.43;;;1.80;77.00;;;;;;4938743;29;20047;-80
2021/01/20 01:26:27;;;;;;;2.93;1.83;;;1.80;77.30;;;;;;4922696;29;20039;-80
2021/01/20 01:28:52;;;;;;;5.10;1.83;;;1.80;77.40;;;;;;4922367;29;20038;-81
2021/01/20 01:31:18;;;;;;;3.90;1.90;;;1.80;77.30;;;;;;4922059;29;20032;-82
2021/01/20 01:33:44;;;;;;;4.77;2.40;;;1.70;77.50;;;;;;4939295;29;20031;-82
2021/01/20 01:36:10;;;;;;;2.60;1.90;;;1.60;77.80;;;;;;4921995;29;20372;-81
2021/01/20 01:38:35;;;;;;;3.20;1.90;;;1.70;77.70;;;;;;4922048;29;20035;-81
2021/01/20 01:41:01;;;;;;;4.43;2.10;;;1.60;77.40;;;;;;4921857;29;20421;-81
2021/01/20 03:19:59;;;;;;;5.83;2.87;;;1.20;81.40;;;;;;4880908;29;20056;-73
2021/01/20 03:22:24;;;;;;;7.00;2.50;;;1.10;81.60;;;;;;4894292;29;20132;-73
2021/01/20 03:24:50;;;;;;;5.10;2.80;;;1.10;81.50;;;;;;4878229;29;20493;-74
2021/01/20 03:27:16;;;;;;;3.47;2.60;;;1.20;81.70;;;;;;4879682;29;20029;-73
2021/01/20 03:29:42;;;;;;;4.93;2.60;;;1.10;82.00;;;;;;4893945;29;20032;-73
2021/01/20 03:32:07;;;;;;;4.60;2.23;;;1.10;82.10;;;;;;4879132;29;20044;-73
2021/01/20 03:34:34;;;;;;;4.60;2.57;;;1.10;82.20;;;;;;4878366;29;20043;-73
2021/01/20 03:37:01;;;;;;;4.67;2.70;;;1.10;82.10;;;;;;4879002;29;20036;-73
2021/01/20 03:39:27;;;;;;;5.33;2.43;;;1.20;82.40;;;;;;4879529;29;20040;-73
2021/01/20 03:41:52;;;;;;;4.73;2.40;;;1.20;82.30;;;;;;4879026;29;20255;-74
2021/01/20 03:44:18;;;;;;;5.63;2.37;;;1.30;82.30;;;;;;4879704;29;20029;-74
2021/01/20 03:46:43;;;;;;;6.60;2.47;;;1.30;82.10;;;;;;4879129;29;20036;-73
2021/01/20 03:49:09;;;;;;;5.90;2.80;;;1.30;82.00;;;;;;4877612;29;20029;-73
2021/01/20 03:51:35;;;;;;;4.07;2.50;;;1.30;82.10;;;;;;4893843;29;20474;-74
2021/01/20 03:54:01;;;;;;;4.07;2.70;;;1.40;82.10;;;;;;4878817;29;20029;-73
2021/01/20 03:56:26;;;;;;;4.20;2.70;;;1.40;82.10;;;;;;4879352;29;20436;-73
2021/01/20 03:58:52;;;;;;;5.20;2.90;;;1.30;82.10;;;;;;4876894;29;20040;-74
2021/01/20 04:01:17;;;;;;;5.77;2.80;;;1.30;82.30;;;;;;4877542;29;20056;-73
2021/01/20 04:03:43;;;;;;;5.37;2.80;;;1.20;82.50;;;;;;4879152;29;20112;-73
2021/01/20 04:06:09;;;;;;;7.10;2.60;;;1.20;82.70;;;;;;4878560;29;20395;-73
2021/01/20 04:08:34;;;;;;;5.67;2.73;;;1.20;82.50;;;;;;4877931;29;20028;-72
2021/01/20 04:11:00;;;;;;;7.40;2.67;;;1.20;82.50;;;;;;4877388;29;20494;-73
2021/01/20 04:13:26;;;;;;;4.00;2.50;;;1.10;82.40;;;;;;4893313;29;20100;-73
2021/01/20 04:15:51;;;;;;;6.17;2.90;;;1.10;82.60;;;;;;4877020;29;20551;-73
2021/01/20 04:18:17;;;;;;;5.67;2.80;;;1.00;82.80;;;;;;4880484;29;20116;-73
2021/01/20 04:20:43;;;;;;;5.07;2.83;;;1.10;82.50;;;;;;4880896;29;20029;-73
2021/01/20 04:23:08;;;;;;;5.17;2.97;;;1.00;82.30;;;;;;4896931;29;20032;-74
2021/01/20 04:25:34;;;;;;;6.30;3.07;;;1.00;82.40;;;;;;4896407;29;20082;-73
2021/01/20 04:28:00;;;;;;;6.03;3.07;;;1.10;82.30;;;;;;4880368;29;20124;-73
2021/01/20 04:30:25;;;;;;;4.17;2.97;;;1.00;82.30;;;;;;4896322;29;20033;-74
2021/01/20 04:32:51;;;;;;;6.87;3.10;;;1.10;82.30;;;;;;4895831;29;20518;-78
2021/01/20 04:35:17;;;;;;;5.43;3.00;;;1.00;82.40;;;;;;4897589;29;20029;-73
2021/01/20 04:37:42;;;;;;;4.57;2.93;;;1.00;82.70;;;;;;4880814;29;20459;-73
2021/01/20 04:40:08;;;;;;;5.70;2.80;;;1.00;82.50;;;;;;4895860;29;20084;-74
2021/01/20 04:42:34;;;;;;;6.00;2.73;;;0.90;82.80;;;;;;4880529;29;20099;-73
2021/01/20 04:45:00;;;;;;;6.23;3.43;;;0.90;83.10;;;;;;4895749;29;20116;-74
2021/01/20 04:47:28;;;;;;;5.47;2.80;;;0.90;83.00;;;;;;4880636;29;20025;-73
2021/01/20 04:49:54;;;;;;;4.57;2.53;;;0.90;83.20;;;;;;4895563;29;20135;-73
2021/01/20 04:52:22;;;;;;;4.40;2.87;;;0.90;83.20;;;;;;4897371;29;20025;-73
2021/01/20 04:54:49;;;;;;;5.67;2.73;;;1.00;83.70;;;;;;4880539;29;20088;-73
2021/01/20 04:57:16;;;;;;;4.90;2.83;;;1.00;83.70;;;;;;4880145;29;20029;-73
2021/01/20 04:59:42;;;;;;;4.53;2.60;;;1.00;83.70;;;;;;4880607;29;20048;-73
2021/01/20 05:02:11;;;;;;;4.93;2.60;;;1.10;83.90;;;;;;4880007;29;20060;-73
2021/01/20 05:04:41;;;;;;;6.17;2.33;;;1.10;84.20;;;;;;4880591;29;20390;-73
2021/01/20 05:07:07;;;;;;;5.83;2.83;;;1.20;84.20;;;;;;4879999;29;20028;-73
2021/01/20 05:09:33;;;;;;;6.97;2.60;;;1.20;84.20;;;;;;4880421;29;20028;-73
2021/01/20 05:11:59;;;;;;;4.97;2.50;;;1.30;84.10;;;;;;4896812;29;20071;-74
2021/01/20 05:14:25;;;;;;;4.10;2.63;;;1.30;84.10;;;;;;4883058;29;20060;-74
2021/01/20 05:16:53;;;;;;;5.20;2.50;;;1.30;84.30;;;;;;4900718;29;20085;-74
2021/01/20 05:19:40;;;;;;;5.83;2.83;;;1.30;84.00;;;;;;4883549;29;20052;-74
2021/01/20 05:22:07;;;;;;;4.37;2.70;;;1.40;84.00;;;;;;4883145;29;20097;-74
2021/01/20 05:24:37;;;;;;;5.17;2.70;;;1.40;83.90;;;;;;4900651;29;20024;-73
2021/01/20 05:27:04;;;;;;;6.47;2.73;;;1.40;83.80;;;;;;4898608;29;20124;-74
2021/01/20 05:29:30;;;;;;;7.10;2.80;;;1.40;84.00;;;;;;4900316;29;20418;-73
2021/01/20 05:31:56;;;;;;;4.90;3.00;;;1.40;84.30;;;;;;4883201;29;20033;-73
2021/01/20 05:34:22;;;;;;;4.70;2.60;;;1.40;84.00;;;;;;4883531;29;20455;-73
2021/01/20 05:37:03;;;;;;;6.37;2.80;;;1.40;84.40;;;;;;4883665;29;20025;-73
2021/01/20 05:39:30;;;;;;;4.27;2.77;;;1.40;84.60;;;;;;4900391;29;20035;-73
2021/01/20 05:42:03;;;;;;;7.47;3.73;;;1.40;84.30;;;;;;4898431;29;20043;-74
2021/01/20 05:44:29;;;;;;;5.37;3.00;;;1.40;84.40;;;;;;4899291;29;20446;-73
2021/01/20 05:46:55;;;;;;;5.90;3.00;;;1.40;84.50;;;;;;4883302;29;20028;-77
2021/01/20 05:49:28;;;;;;;5.40;3.20;;;1.40;84.40;;;;;;4883305;29;20410;-72
2021/01/20 05:51:55;;;;;;;4.87;3.10;;;1.40;84.40;;;;;;4900139;29;20044;-73
2021/01/20 05:54:38;;;;;;;5.63;3.03;;;1.40;84.30;;;;;;4898825;29;20124;-73
2021/01/20 05:57:14;;;;;;;5.33;3.20;;;1.40;84.30;;;;;;4899565;29;20039;-72
2021/01/20 05:59:41;;;;;;;4.90;2.80;;;1.40;84.40;;;;;;4883079;29;20119;-73
2021/01/20 06:02:08;;;;;;;5.13;3.10;;;1.50;84.50;;;;;;4882563;29;20367;-73
2021/01/20 06:04:35;;;;;;;5.33;2.93;;;1.50;84.40;;;;;;4899817;29;20028;-73
2021/01/20 06:07:06;;;;;;;5.07;2.77;;;1.40;84.60;;;;;;4899062;29;20084;-73
2021/01/20 06:09:35;;;;;;;4.57;2.80;;;1.50;84.70;;;;;;4899831;29;20036;-73
2021/01/20 06:12:05;;;;;;;3.87;2.73;;;1.40;84.50;;;;;;4898981;29;20028;-73
2021/01/20 06:14:31;;;;;;;5.93;2.53;;;1.50;84.70;;;;;;4882975;29;20513;-73
2021/01/20 06:17:14;;;;;;;5.30;2.97;;;1.50;84.90;;;;;;4898826;29;20518;-77
2021/01/20 06:19:47;;;;;;;6.27;2.97;;;1.50;84.80;;;;;;4899465;29;20044;-74
2021/01/20 06:22:18;;;;;;;5.63;2.50;;;1.50;84.70;;;;;;4882147;29;20036;-73
2021/01/20 06:24:48;;;;;;;4.67;2.80;;;1.50;84.50;;;;;;4882440;29;20032;-73
2021/01/20 06:27:37;;;;;;;4.57;2.50;;;1.60;84.50;;;;;;4881771;29;20043;-73
2021/01/20 06:30:12;;;;;;;4.83;2.43;;;1.60;84.60;;;;;;4898980;29;20025;-73
2021/01/20 06:32:43;;;;;;;3.77;2.63;;;1.50;84.60;;;;;;4882640;29;20064;-73
2021/01/20 06:35:10;;;;;;;3.93;2.33;;;1.60;84.60;;;;;;4898865;29;20033;-73
2021/01/20 06:37:38;;;;;;;3.50;2.10;;;1.60;84.60;;;;;;4899317;29;20064;-73
2021/01/20 06:40:26;;;;;;;3.23;2.20;;;1.60;84.30;;;;;;4898677;29;20039;-72
2021/01/20 06:42:53;;;;;;;3.53;2.00;;;1.60;84.50;;;;;;4898865;29;20051;-73
2021/01/20 06:45:25;;;;;;;4.37;2.53;;;1.60;84.70;;;;;;4881691;29;20044;-73
2021/01/20 06:47:59;;;;;;;3.88;1.98;;;1.60;85.00;;;;;;4882255;29;20184;-73
2021/01/20 06:50:27;;;;;;;4.17;2.60;;;1.60;84.90;;;;;;4898996;29;20087;-73
2021/01/20 06:53:03;;;;;;;5.77;2.57;;;1.60;84.90;;;;;;4882186;29;20073;-72
2021/01/20 06:55:36;;;;;;;6.97;2.83;;;1.70;84.90;;;;;;4881820;29;20076;-73
2021/01/20 06:58:18;;;;;;;4.10;2.40;;;1.70;84.90;;;;;;4881715;29;20032;-73
2021/01/20 07:01:10;;;;;;;;;;;1.70;85.00;;;;;;4882554;29;20179;-73
2021/01/20 07:03:43;;;;;;;8.87;2.73;;;1.70;85.00;;;;;;4896653;29;19956;-73
2021/01/20 07:06:27;;;;;;;;;;;1.70;85.20;;;;;;4898655;29;20363;-73
2021/01/20 07:08:52;;;;;;;6.97;3.23;;;1.70;85.30;;;;;;4898642;29;19915;-73
2021/01/20 07:11:18;;;;;;;5.33;2.90;;;1.70;85.30;;;;;;4898101;29;20374;-73
2021/01/20 07:13:44;;;;;;;6.00;3.27;;;1.70;85.00;;;;;;4898731;29;20043;-73
2021/01/20 07:16:11;;;;;;;7.33;3.27;;;1.80;85.20;;;;;;4881174;29;20030;-73
2021/01/20 07:18:40;;;;;;;7.67;3.90;;;1.80;85.20;;;;;;4898384;29;20099;-73
2021/01/20 07:21:06;;;;;;;8.20;3.47;;;1.80;85.20;;;;;;4896532;29;20059;-73
2021/01/20 07:23:33;;;;;;;9.17;4.00;;;1.90;85.00;;;;;;4884825;29;20020;-73
2021/01/20 07:26:03;;;;;;;9.90;4.20;;;1.90;85.20;;;;;;4881289;29;20033;-73
2021/01/20 07:28:29;;;;;;;6.90;3.53;;;1.90;85.30;;;;;;4898292;29;20032;-73
2021/01/20 07:31:12;;;;;;;7.17;3.93;;;1.80;85.10;;;;;;4898545;29;20040;-73
2021/01/20 07:33:49;;;;;;;7.50;3.47;;;1.90;85.20;;;;;;4898404;29;20107;-73
2021/01/20 07:36:17;;;;;;;10.27;3.57;;;1.90;85.20;;;;;;4880385;29;20036;-73
2021/01/20 07:38:48;;;;;;;7.20;3.70;;;1.90;85.30;;;;;;4881356;29;20435;-73
2021/01/20 07:41:19;;;;;;;6.87;3.33;;;1.90;85.20;;;;;;4880824;29;20067;-73
2021/01/20 07:43:46;;;;;;;6.88;3.55;;;1.90;85.30;;;;;;4898194;29;20359;-73
2021/01/20 07:46:17;;;;;;;6.20;3.10;;;2.00;85.50;;;;;;4897634;29;20043;-73
2021/01/20 07:48:43;;;;;;;5.95;2.75;;;2.00;85.40;;;;;;4898119;29;20483;-74
2021/01/20 07:51:31;;;;;;;20.00;8.93;;;2.00;85.60;;;;;;4880633;29;20051;-73
2021/01/20 07:53:59;;;;;;;9.73;3.77;;;2.00;85.30;;;;;;4881034;29;20035;-72
2021/01/20 07:56:25;;;;;;;5.97;3.23;;;2.10;85.30;;;;;;4880585;29;20025;-73
2021/01/20 07:58:51;;;;;;;4.27;2.50;;;2.10;85.20;;;;;;4897666;29;20028;-72
2021/01/20 08:01:30;;;;;;;6.30;2.87;;;2.20;85.40;;;;;;4880489;29;20131;-73
2021/01/20 08:03:57;;;;;;;6.47;2.87;;;2.20;85.00;;;;;;4897742;29;20089;-72
2021/01/20 08:06:40;;;;;;;3.77;2.93;;;2.20;85.00;;;;;;4880345;29;20032;-72
2021/01/20 08:09:06;;;;;;;5.27;2.90;;;2.20;85.10;;;;;;4880230;29;20056;-75
2021/01/20 08:11:33;;;;;;;6.40;3.07;;;2.30;85.00;;;;;;4897906;29;20454;-74
2021/01/20 08:13:59;;;;;;;6.63;2.40;;;2.20;85.70;;;;;;4881008;29;20035;-74
2021/01/20 08:16:28;;;;;;;6.43;2.90;;;2.20;85.30;;;;;;4880259;29;20029;-74
2021/01/20 08:18:54;;;;;;;4.77;2.50;;;2.20;85.50;;;;;;4897157;29;20060;-74
2021/01/20 08:21:20;;;;;;;3.60;2.47;;;2.20;85.80;;;;;;4880189;29;20475;-75
2021/01/20 08:23:55;;;;;;;5.00;2.80;;;2.30;85.90;;;;;;4880777;29;20029;-75
2021/01/20 08:26:28;;;;;;;4.33;2.30;;;2.30;85.50;;;;;;4880261;29;20028;-72
2021/01/20 08:29:11;;;;;;;5.70;2.50;;;2.30;85.40;;;;;;4897531;29;20041;-73
2021/01/20 08:31:39;;;;;;;4.50;2.50;;;2.40;85.10;;;;;;4897491;29;20088;-73
2021/01/20 08:34:17;;;;;;;4.20;2.63;;;2.40;85.00;;;;;;4899407;29;20052;-75
2021/01/20 08:37:01;;;;;;;5.17;2.83;;;2.40;85.50;;;;;;4905065;29;20459;-72
2021/01/20 08:39:27;;;;;;;3.70;2.70;;;2.50;85.10;;;;;;4895418;29;20033;-73
2021/01/20 08:42:15;;;;;;;4.87;2.37;;;2.50;84.90;;;;;;4903183;29;20036;-72
2021/01/20 08:45:01;;;;;;;4.37;2.40;;;2.50;84.60;;;;;;4886480;29;20478;-73
2021/01/20 08:47:27;;;;;;;5.17;2.90;;;2.60;84.90;;;;;;4897305;29;20024;-73
2021/01/20 08:49:53;;;;;;;5.73;2.70;;;2.60;84.80;;;;;;4901392;29;20080;-73
2021/01/20 08:52:22;;;;;;;6.13;2.90;;;2.60;84.60;;;;;;4894273;29;20561;-73
2021/01/20 08:54:49;;;;;;;5.37;2.93;;;2.70;84.60;;;;;;4902201;29;20024;-73
2021/01/20 08:57:21;;;;;;;6.17;3.50;;;2.70;85.10;;;;;;4886465;29;20028;-73
2021/01/20 08:59:56;;;;;;;5.57;3.20;;;2.80;84.90;;;;;;4897272;29;20027;-74
2021/01/20 09:02:23;;;;;;;8.33;3.77;;;2.80;84.30;;;;;;4909688;29;20063;-74
2021/01/20 09:04:49;;;;;;;6.07;3.07;;;2.80;84.50;;;;;;4889079;29;20076;-73
2021/01/20 09:07:19;;;;;;;7.77;3.57;;;2.90;84.30;;;;;;4915442;29;20032;-74
2021/01/20 09:09:45;;;;;;;7.17;3.83;;;2.90;84.60;;;;;;4905894;29;20032;-73
2021/01/20 09:12:13;;;;;;;5.03;3.53;;;2.90;84.80;;;;;;4893006;29;20036;-74
2021/01/20 09:14:39;;;;;;;5.70;3.03;;;2.90;85.10;;;;;;4895688;29;20474;-73
2021/01/20 09:17:06;;;;;;;5.93;3.53;;;3.10;85.00;;;;;;4886464;29;20036;-73
2021/01/20 09:19:32;;;;;;;6.80;3.20;;;3.10;84.90;;;;;;4889329;29;20048;-73
2021/01/20 09:21:58;;;;;;;5.47;2.63;;;3.10;84.70;;;;;;4912067;29;20108;-73
2021/01/20 09:24:24;;;;;;;4.20;2.87;;;3.20;84.50;;;;;;4909602;29;20110;-75
2021/01/20 09:26:49;;;;;;;7.03;3.00;;;3.20;84.20;;;;;;4904819;29;20032;-72
2021/01/20 09:29:15;;;;;;;6.33;2.87;;;3.30;84.10;;;;;;4895592;29;20029;-74
2021/01/20 09:31:41;;;;;;;5.00;3.10;;;3.40;83.50;;;;;;4914140;29;20359;-74
2021/01/20 09:34:08;;;;;;;5.53;3.10;;;3.40;83.00;;;;;;4907567;29;20485;-71
2021/01/20 09:36:34;;;;;;;7.23;3.30;;;3.50;82.80;;;;;;4890435;29;20127;-73
2021/01/20 09:39:00;;;;;;;4.23;2.80;;;3.50;82.70;;;;;;4901835;29;20468;-73
2021/01/20 09:41:26;;;;;;;6.07;3.30;;;3.60;81.80;;;;;;4884697;29;20036;-74
2021/01/20 09:43:53;;;;;;;6.80;3.13;;;3.70;81.10;;;;;;4911508;29;20352;-72
2021/01/20 09:46:20;;;;;;;7.10;2.70;;;3.80;81.60;;;;;;4908010;29;20028;-73
2021/01/20 09:48:46;;;;;;;7.27;3.80;;;3.90;81.30;;;;;;4888343;29;20534;-73
2021/01/20 09:51:12;;;;;;;6.90;3.83;;;4.00;80.60;;;;;;4914212;29;20036;-73
2021/01/20 09:53:38;;;;;;;8.60;4.13;;;4.10;80.10;;;;;;4903665;29;20024;-72
2021/01/20 09:56:03;;;;;;;6.33;3.50;;;4.20;79.40;;;;;;4893844;29;20035;-73
2021/01/20 09:58:29;;;;;;;6.70;3.53;;;4.30;78.70;;;;;;4909644;29;20036;-74
2021/01/20 10:00:55;;;;;;;8.53;4.33;;;4.40;78.60;;;;;;4886634;29;20085;-73
2021/01/20 10:03:20;;;;;;;9.77;4.40;;;4.50;77.90;;;;;;4897518;29;20088;-74
2021/01/20 10:05:48;;;;;;;13.07;5.30;;;4.50;78.10;;;;;;4887920;29;20083;-73
2021/01/20 10:08:13;;;;;;;10.00;4.90;;;4.60;78.30;;;;;;4891674;29;20044;-74
2021/01/20 10:10:39;;;;;;;9.70;4.77;;;4.60;78.20;;;;;;4882532;29;20025;-75
2021/01/20 10:13:05;;;;;;;6.33;3.57;;;4.60;78.10;;;;;;4897490;29;20056;-74
2021/01/20 10:15:31;;;;;;;6.60;2.77;;;4.70;77.90;;;;;;4885335;29;20473;-75
2021/01/20 10:17:56;;;;;;;9.00;3.60;;;4.70;77.80;;;;;;4911016;29;20023;-74
2021/01/20 10:20:23;;;;;;;6.83;3.13;;;4.70;78.10;;;;;;4890950;29;20059;-75
2021/01/20 10:22:49;;;;;;;7.10;2.97;;;4.80;78.00;;;;;;4887131;29;20032;-75
2021/01/20 10:25:15;;;;;;;5.13;2.27;;;4.80;77.60;;;;;;4897103;29;20086;-75
2021/01/20 10:27:41;;;;;;;7.03;2.73;;;4.90;77.20;;;;;;4903918;29;20450;-75
2021/01/20 10:30:07;;;;;;;3.53;2.07;;;5.00;77.40;;;;;;4893248;29;20035;-75
2021/01/20 10:32:34;;;;;;;4.93;2.27;;;5.00;77.30;;;;;;4893155;29;20033;-73
2021/01/20 10:34:59;;;;;;;4.50;1.97;;;5.10;76.20;;;;;;4902737;29;20029;-74
2021/01/20 10:37:25;;;;;;;3.87;1.83;;;5.20;76.10;;;;;;4913639;29;20033;-74
2021/01/20 10:39:51;;;;;;;3.97;1.90;;;5.30;75.10;;;;;;4888235;29;20016;-74
2021/01/20 10:42:16;;;;;;;2.43;1.53;;;5.40;75.20;;;;;;4894774;29;20038;-75
2021/01/20 10:44:42;;;;;;;3.33;2.00;;;5.40;75.30;;;;;;4900832;29;20020;-75
2021/01/20 10:47:08;;;;;;;6.57;1.87;;;5.40;75.20;;;;;;4884992;29;20363;-79
2021/01/20 10:49:34;;;;;;;3.80;1.67;;;5.40;75.30;;;;;;4896688;29;20094;-75
2021/01/20 10:52:01;;;;;;;4.40;2.03;;;5.50;75.20;;;;;;4888300;29;20024;-74
2021/01/20 10:54:27;;;;;;;3.27;1.67;;;5.50;75.00;;;;;;4899735;29;20028;-74
2021/01/20 10:56:52;;;;;;;3.23;1.77;;;5.60;75.30;;;;;;4886750;29;20530;-75
2021/01/20 10:59:18;;;;;;;4.10;1.63;;;5.60;74.70;;;;;;4913718;29;20024;-75
2021/01/20 11:01:44;;;;;;;2.70;1.57;;;5.60;74.80;;;;;;4903463;29;20519;-74
2021/01/20 11:04:09;;;;;;;5.03;1.90;;;5.60;74.70;;;;;;4908477;29;20370;-75
2021/01/20 11:06:35;;;;;;;4.33;1.53;;;5.70;74.50;;;;;;4893363;29;20024;-74
2021/01/20 11:09:01;;;;;;;3.30;1.77;;;5.70;74.70;;;;;;4902098;29;20466;-74
2021/01/20 11:11:27;;;;;;;3.40;1.90;;;5.80;74.30;;;;;;4895141;29;20032;-75
2021/01/20 11:13:53;;;;;;;2.93;1.70;;;5.90;74.60;;;;;;4904595;29;20028;-75
2021/01/20 11:16:19;;;;;;;2.80;1.47;;;6.00;73.70;;;;;;4907078;29;20028;-74
2021/01/20 11:18:45;;;;;;;4.37;1.70;;;6.00;73.00;;;;;;4894117;29;20184;-73
2021/01/20 11:21:14;;;;;;;2.90;1.27;;;6.00;73.00;;;;;;4883575;29;20041;-74
2021/01/20 11:23:45;;;;;;;4.17;1.83;;;6.10;72.60;;;;;;4908644;29;20016;-73
2021/01/20 11:26:10;;;;;;;3.33;1.20;;;6.10;72.50;;;;;;4890887;29;20036;-73
2021/01/20 11:28:36;;;;;;;4.60;1.60;;;6.10;72.50;;;;;;4892592;29;20031;-73
2021/01/20 11:31:02;;;;;;;5.07;1.57;;;6.20;73.00;;;;;;4884811;29;20035;-73
2021/01/20 11:33:28;;;;;;;3.97;1.70;;;6.30;73.10;;;;;;4895564;29;20033;-75
2021/01/20 11:35:54;;;;;;;3.03;1.67;;;6.50;73.90;;;;;;4898025;29;20486;-73
2021/01/20 11:38:19;;;;;;;3.33;1.70;;;6.50;72.80;;;;;;4890169;29;20024;-75
2021/01/20 11:40:45;;;;;;;5.10;1.60;;;6.50;72.30;;;;;;4886653;29;20044;-75
2021/01/20 11:43:11;;;;;;;3.27;1.57;;;6.60;72.20;;;;;;4885479;29;20063;-74
2021/01/20 11:45:38;;;;;;;3.70;1.60;;;6.60;72.20;;;;;;4910240;29;20028;-73
2021/01/20 11:48:05;;;;;;;2.63;1.60;;;6.60;72.20;;;;;;4903999;29;20032;-74
2021/01/20 11:50:31;;;;;;;3.67;1.60;;;6.60;72.30;;;;;;4904752;29;20036;-74
2021/01/20 11:52:57;;;;;;;2.50;1.57;;;6.60;72.00;;;;;;4904689;29;20508;-75
2021/01/20 11:55:23;;;;;;;2.80;1.50;;;6.60;72.10;;;;;;4895553;29;20032;-75
2021/01/20 11:57:50;;;;;;;2.27;1.47;;;6.70;72.30;;;;;;4905944;29;20028;-75
2021/01/20 12:00:17;;;;;;;3.63;1.40;;;6.70;72.50;;;;;;4906095;29;20132;-75
2021/01/20 12:02:43;;;;;;;3.13;1.50;;;6.70;72.40;;;;;;4909875;29;20482;-74
2021/01/20 12:05:11;;;;;;;4.60;1.73;;;6.80;72.00;;;;;;4883350;29;20032;-74
2021/01/20 12:07:39;;;;;;;2.83;1.30;;;6.80;71.90;;;;;;4895177;29;20047;-72
2021/01/20 12:10:07;;;;;;;2.70;1.30;;;6.90;71.60;;;;;;4897155;29;20474;-73
2021/01/20 12:12:33;;;;;;;2.70;1.30;;;6.90;71.60;;;;;;4890818;29;20043;-73
2021/01/20 12:14:58;;;;;;;4.47;1.83;;;6.90;71.50;;;;;;4884511;29;20077;-74
2021/01/20 12:17:24;;;;;;;3.97;1.80;;;7.00;71.60;;;;;;4895402;29;20477;-74
2021/01/20 12:19:50;;;;;;;6.37;1.53;;;7.00;71.30;;;;;;4903338;29;20056;-74
2021/01/20 12:22:15;;;;;;;3.33;1.70;;;7.10;70.80;;;;;;4888820;29;20127;-73
2021/01/20 12:24:41;;;;;;;3.63;1.80;;;7.10;70.70;;;;;;4892816;29;20032;-75
2021/01/20 12:27:07;;;;;;;3.90;1.93;;;7.30;71.00;;;;;;4899899;29;20094;-76
2021/01/20 12:29:32;;;;;;;2.77;1.67;;;7.30;70.70;;;;;;4899992;29;20031;-75
2021/01/20 12:31:58;;;;;;;5.73;2.13;;;7.30;70.80;;;;;;4892305;29;20029;-75
2021/01/20 12:34:23;;;;;;;3.77;2.27;;;7.40;70.70;;;;;;4905944;29;20047;-75
2021/01/20 12:36:49;;;;;;;4.97;2.47;;;7.40;70.80;;;;;;4885538;29;20063;-74
2021/01/20 12:39:15;;;;;;;5.50;2.53;;;7.30;71.40;;;;;;4894637;29;20033;-75
2021/01/20 12:41:42;;;;;;;3.90;2.13;;;7.30;71.70;;;;;;4884519;29;20485;-74
2021/01/20 12:44:08;;;;;;;4.47;2.50;;;7.30;71.90;;;;;;4907246;29;20032;-73
2021/01/20 12:46:34;;;;;;;6.07;2.60;;;7.30;72.30;;;;;;4908505;29;20036;-73
2021/01/20 12:49:00;;;;;;;5.40;2.50;;;7.30;72.40;;;;;;4888922;29;20089;-73
2021/01/20 12:51:25;;;;;;;5.63;2.90;;;7.30;72.50;;;;;;4914489;29;20087;-74
2021/01/20 12:53:51;;;;;;;9.63;2.77;;;7.30;72.60;;;;;;4907093;29;20048;-74
2021/01/20 12:56:17;;;;;;;6.47;2.90;;;7.40;72.70;;;;;;4888622;29;20032;-73
2021/01/20 12:58:42;;;;;;;5.87;2.60;;;7.40;72.70;;;;;;4892021;29;20067;-74
2021/01/20 13:01:09;;;;;;;4.80;2.37;;;7.40;72.70;;;;;;4882746;29;20064;-78
2021/01/20 13:03:34;;;;;;;4.67;2.53;;;7.60;72.50;;;;;;4894304;29;20039;-74
2021/01/20 13:06:00;;;;;;;6.80;2.73;;;7.70;72.30;;;;;;4891719;29;20026;-71
2021/01/20 13:08:26;;;;;;;5.77;2.50;;;7.70;72.40;;;;;;4889868;29;20382;-74
2021/01/20 13:10:52;;;;;;;4.13;2.40;;;7.80;72.30;;;;;;4901876;29;20025;-73
2021/01/20 13:13:18;;;;;;;4.70;2.20;;;7.80;71.90;;;;;;4911254;29;20032;-75
2021/01/20 13:15:47;;;;;;;6.67;2.60;;;7.90;72.40;;;;;;4884917;29;20024;-73
2021/01/20 13:18:13;;;;;;;7.13;2.83;;;7.90;71.70;;;;;;4889049;29;20043;-74
2021/01/20 13:20:39;;;;;;;7.50;2.60;;;8.00;71.60;;;;;;4909149;29;20130;-74
2021/01/20 13:23:04;;;;;;;4.20;2.43;;;8.10;71.60;;;;;;4882735;29;20085;-73
2021/01/20 13:25:31;;;;;;;4.37;2.40;;;8.20;71.80;;;;;;4894707;29;20029;-73
2021/01/20 13:27:56;;;;;;;11.33;2.30;;;8.30;71.30;;;;;;4903736;29;20056;-73
2021/01/20 13:30:22;;;;;;;4.03;2.17;;;8.30;71.20;;;;;;4887874;29;20470;-73
2021/01/20 13:32:48;;;;;;;6.07;2.00;;;8.40;70.90;;;;;;4892771;29;20056;-75
2021/01/20 13:35:14;;;;;;;4.57;2.00;;;8.40;70.80;;;;;;4890287;29;20036;-74
2021/01/20 13:37:40;;;;;;;5.07;2.60;;;8.40;70.70;;;;;;4897315;29;20078;-75
2021/01/20 13:40:06;;;;;;;4.60;1.70;;;8.40;70.80;;;;;;4891155;29;20028;-75
2021/01/20 13:42:31;;;;;;;4.40;2.10;;;8.40;70.70;;;;;;4889808;29;20128;-74
2021/01/20 13:44:57;;;;;;;7.73;2.03;;;8.40;70.60;;;;;;4897474;29;20111;-73
2021/01/20 13:47:23;;;;;;;2.57;1.40;;;8.40;70.30;;;;;;4885640;29;20041;-74
2021/01/20 13:49:48;;;;;;;3.67;1.77;;;8.40;70.20;;;;;;4913231;29;20370;-74
2021/01/20 13:52:14;;;;;;;3.93;1.80;;;8.40;70.20;;;;;;4891374;29;20086;-75
2021/01/20 13:54:40;;;;;;;3.97;1.50;;;8.50;70.10;;;;;;4901070;29;20390;-75
2021/01/20 13:57:09;;;;;;;5.27;1.87;;;8.50;70.10;;;;;;4917552;29;20082;-74
2021/01/20 13:59:36;;;;;;;3.33;1.50;;;8.60;70.00;;;;;;4886739;29;20032;-74
2021/01/20 14:02:03;;;;;;;3.50;2.00;;;8.70;69.80;;;;;;4894172;29;20033;-75
2021/01/20 14:04:29;;;;;;;4.80;2.00;;;8.80;70.10;;;;;;4892661;29;20288;-75
2021/01/20 14:06:55;;;;;;;2.87;1.97;;;8.80;69.20;;;;;;4887595;29;20073;-73
2021/01/20 14:09:20;;;;;;;3.07;1.80;;;8.90;69.00;;;;;;4914009;29;20398;-74
2021/01/20 14:11:46;;;;;;;3.20;1.80;;;8.90;69.40;;;;;;4904720;29;20024;-74
2021/01/20 14:14:12;;;;;;;3.80;1.77;;;8.90;68.60;;;;;;4891550;29;20028;-74
2021/01/20 14:16:37;;;;;;;4.60;1.80;;;8.90;68.80;;;;;;4883829;29;20112;-74
2021/01/20 14:19:03;;;;;;;3.88;1.60;;;8.90;68.90;;;;;;4897491;29;20056;-73
2021/01/20 14:21:29;;;;;;;5.18;1.70;;;8.80;69.00;;;;;;4901827;29;20068;-75
2021/01/20 14:23:55;;;;;;;4.35;1.85;;;8.80;69.20;;;;;;4900458;29;20384;-74
2021/01/20 14:26:21;;;;;;;3.65;1.65;;;8.70;69.10;;;;;;4907411;29;20032;-73
2021/01/20 14:28:47;;;;;;;4.47;2.00;;;8.70;69.40;;;;;;4895401;29;20028;-75
2021/01/20 14:31:12;;;;;;;4.75;2.17;;;8.70;70.00;;;;;;4884796;29;20036;-74
2021/01/20 14:33:38;;;;;;;6.88;2.55;;;8.60;69.90;;;;;;4896109;29;20028;-73
2021/01/20 14:36:04;;;;;;;7.20;2.67;;;8.70;69.90;;;;;;4889408;29;20064;-73